createdAt,value
2022-12-27T00:01:12.234Z,93.76
2022-12-27T00:03:46.109Z,93.80
2022-12-27T00:06:23.433Z,93.40
2022-12-27T00:08:58.564Z,93.42
2022-12-27T00:11:32.805Z,92.94
2022-12-27T00:14:08.875Z,92.45
2022-12-27T00:16:42.893Z,92.35
2022-12-27T00:19:18.209Z,92.50
2022-12-27T00:21:51.474Z,93.28
2022-12-27T00:24:24.977Z,93.20
2022-12-27T00:26:58.406Z,93.02
2022-12-27T00:29:34.599Z,93.25
2022-12-27T00:32:07.881Z,93.24
2022-12-27T00:34:41.211Z,92.78
2022-12-27T00:37:14.569Z,92.87
2022-12-27T00:39:48.395Z,93.73
2022-12-27T00:42:21.910Z,93.11
2022-12-27T00:44:57.211Z,92.90
2022-12-27T00:47:30.888Z,92.72
2022-12-27T00:50:04.753Z,93.92
2022-12-27T00:52:38.057Z,94.45
2022-12-27T00:55:11.689Z,94.13
2022-12-27T00:57:45.650Z,93.40
2022-12-27T01:00:20.607Z,93.94
2022-12-27T01:02:54.193Z,92.88
2022-12-27T01:05:27.766Z,92.43
2022-12-27T01:08:01.420Z,93.04
2022-12-27T01:10:35.166Z,93.41
2022-12-27T01:13:09.723Z,93.64
2022-12-27T01:15:45.210Z,94.01
2022-12-27T01:18:18.810Z,93.15
2022-12-27T01:20:52.402Z,93.04
2022-12-27T01:23:27.743Z,92.99
2022-12-27T01:26:02.808Z,92.76
2022-12-27T01:28:36.726Z,92.79
2022-12-27T01:31:14.935Z,92.74
2022-12-27T01:33:48.915Z,92.18
2022-12-27T01:36:24.023Z,93.66
2022-12-27T01:38:57.846Z,93.43
2022-12-27T01:41:51.617Z,93.67
2022-12-27T01:44:53.483Z,93.81
2022-12-27T01:47:36.280Z,94.12
2022-12-27T01:50:16.857Z,93.88
2022-12-27T01:52:56.602Z,94.49
2022-12-27T01:55:36.095Z,93.46
2022-12-27T01:58:14.505Z,93.54
2022-12-27T02:00:50.002Z,93.47
2022-12-27T02:03:30.272Z,93.25
2022-12-27T02:06:05.659Z,93.18
2022-12-27T02:08:45.035Z,93.71
2022-12-27T02:11:41.359Z,93.92
2022-12-27T02:14:17.255Z,93.48
2022-12-27T02:16:51.140Z,93.37
2022-12-27T02:19:34.813Z,92.92
2022-12-27T02:22:53.303Z,93.07
2022-12-27T02:25:44.791Z,92.75
2022-12-27T02:28:34.311Z,93.39
2022-12-27T02:31:13.674Z,93.00
2022-12-27T02:33:49.956Z,93.94
2022-12-27T02:36:27.394Z,93.13
2022-12-27T02:39:02.685Z,93.46
2022-12-27T02:41:54.214Z,92.93
2022-12-27T02:44:44.885Z,92.93
2022-12-27T02:47:39.452Z,93.74
2022-12-27T02:50:33.179Z,93.36
2022-12-27T02:53:13.737Z,94.12
2022-12-27T02:56:33.167Z,93.82
2022-12-27T02:59:21.433Z,94.42
2022-12-27T03:02:19.247Z,93.93
2022-12-27T03:05:07.548Z,94.97
2022-12-27T03:07:49.707Z,94.14
2022-12-27T03:10:50.317Z,94.31
2022-12-27T03:13:50.956Z,94.14
2022-12-27T03:16:28.029Z,94.67
2022-12-27T03:19:09.175Z,94.72
2022-12-27T03:22:16.884Z,94.07
2022-12-27T03:25:07.320Z,93.91
2022-12-27T03:27:44.372Z,94.38
2022-12-27T03:30:46.872Z,93.81
2022-12-27T03:33:20.563Z,94.05
2022-12-27T03:36:15.486Z,94.59
2022-12-27T03:38:56.327Z,95.48
2022-12-27T03:41:54.452Z,94.74
2022-12-27T03:44:28.966Z,94.56
2022-12-27T03:47:08.055Z,93.83
2022-12-27T03:49:47.221Z,93.81
2022-12-27T03:52:26.507Z,94.44
2022-12-27T03:55:02.196Z,94.38
2022-12-27T03:57:35.978Z,94.71
2022-12-27T04:00:11.002Z,94.79
2022-12-27T04:02:44.428Z,94.36
2022-12-27T04:05:18.002Z,93.66
2022-12-27T04:08:08.839Z,93.70
2022-12-27T04:11:01.201Z,94.35
2022-12-27T04:13:52.527Z,93.61
2022-12-27T04:16:43.959Z,94.26
2022-12-27T04:19:34.333Z,94.33
2022-12-27T04:22:25.033Z,94.68
2022-12-27T04:25:15.802Z,93.38
2022-12-27T04:28:08.348Z,94.47
2022-12-27T04:30:59.007Z,94.27
2022-12-27T04:33:49.872Z,94.95
2022-12-27T04:36:23.839Z,94.13
2022-12-27T04:38:57.162Z,93.95
2022-12-27T04:41:47.869Z,93.57
2022-12-27T04:44:39.900Z,93.31
2022-12-27T04:47:32.213Z,92.50
2022-12-27T04:50:28.640Z,92.42
2022-12-27T04:53:19.552Z,92.72
2022-12-27T04:55:52.804Z,93.75
2022-12-27T04:58:26.169Z,93.81
2022-12-27T05:01:20.468Z,93.20
2022-12-27T05:03:54.614Z,92.47
2022-12-27T05:06:28.031Z,94.21
2022-12-27T05:09:23.182Z,94.40
2022-12-27T05:12:14.372Z,93.43
2022-12-27T05:14:48.071Z,92.98
2022-12-27T05:17:23.412Z,92.76
2022-12-27T05:19:56.779Z,92.76
2022-12-27T05:22:47.436Z,92.05
2022-12-27T05:25:35.614Z,91.87
2022-12-27T05:28:11.170Z,92.27
2022-12-27T05:30:45.098Z,91.56
2022-12-27T05:33:19.825Z,91.99
2022-12-27T05:35:53.587Z,92.43
2022-12-27T05:38:27.610Z,93.02
2022-12-27T05:41:01.330Z,92.93
2022-12-27T05:43:35.597Z,92.77
2022-12-27T05:46:11.556Z,92.23
2022-12-27T05:48:46.540Z,92.59
2022-12-27T05:51:21.883Z,92.97
2022-12-27T05:53:55.161Z,91.91
2022-12-27T05:56:28.549Z,92.34
2022-12-27T05:59:02.009Z,93.16
2022-12-27T06:01:35.563Z,92.56
2022-12-27T06:04:10.848Z,93.51
2022-12-27T06:06:44.663Z,93.10
2022-12-27T06:09:17.679Z,92.20
2022-12-27T06:11:51.780Z,92.67
2022-12-27T06:14:25.234Z,92.80
2022-12-27T06:16:59.176Z,93.44
2022-12-27T06:19:33.890Z,93.51
2022-12-27T06:22:07.397Z,93.41
2022-12-27T06:24:40.837Z,93.03
2022-12-27T06:27:14.843Z,92.44
2022-12-27T06:29:49.773Z,92.62
2022-12-27T06:32:24.285Z,92.95
2022-12-27T06:34:58.957Z,92.66
2022-12-27T06:37:32.887Z,92.32
2022-12-27T06:40:08.016Z,92.93
2022-12-27T06:42:48.843Z,92.48
2022-12-27T06:45:22.333Z,93.21
2022-12-27T06:47:56.783Z,92.77
2022-12-27T06:50:31.656Z,92.49
2022-12-27T06:53:06.164Z,92.65
2022-12-27T06:55:40.345Z,92.67
2022-12-27T06:58:15.084Z,92.38
2022-12-27T07:00:48.616Z,92.06
2022-12-27T07:03:22.597Z,92.78
2022-12-27T07:05:57.743Z,92.49
2022-12-27T07:08:31.831Z,91.88
2022-12-27T07:11:07.882Z,91.65
2022-12-27T07:13:44.274Z,93.09
2022-12-27T07:16:23.157Z,92.63
2022-12-27T07:18:58.923Z,92.84
2022-12-27T07:21:37.878Z,92.53
2022-12-27T07:24:11.497Z,92.29
2022-12-27T07:26:44.966Z,92.79
2022-12-27T07:29:18.649Z,92.02
2022-12-27T07:31:52.187Z,91.76
2022-12-27T07:34:26.147Z,92.03
2022-12-27T07:37:01.363Z,91.37
2022-12-27T07:39:35.354Z,91.77
2022-12-27T07:42:09.310Z,91.69
2022-12-27T07:44:42.949Z,91.42
2022-12-27T07:47:16.964Z,90.52
2022-12-27T07:49:51.251Z,90.79
2022-12-27T07:52:27.104Z,91.14
2022-12-27T07:55:00.782Z,90.25
2022-12-27T07:57:34.311Z,90.26
2022-12-27T08:00:09.460Z,89.66
2022-12-27T08:02:43.731Z,89.55
2022-12-27T08:05:20.361Z,88.90
2022-12-27T08:08:01.368Z,88.77
2022-12-27T08:10:36.172Z,88.36
2022-12-27T08:13:10.727Z,88.22
2022-12-27T08:15:45.220Z,87.92
2022-12-27T08:18:18.702Z,87.85
2022-12-27T08:20:52.537Z,87.63
2022-12-27T08:23:27.458Z,87.52
2022-12-27T08:26:00.963Z,87.06
2022-12-27T08:28:34.697Z,86.92
2022-12-27T08:31:09.352Z,87.01
2022-12-27T08:33:43.062Z,86.80
2022-12-27T08:39:12.452Z,86.28
2022-12-27T08:41:45.871Z,85.88
2022-12-27T08:44:19.917Z,85.75
2022-12-27T08:46:53.417Z,85.56
2022-12-27T08:49:26.852Z,85.21
2022-12-27T08:52:00.363Z,85.81
2022-12-27T08:54:35.212Z,85.18
2022-12-27T08:57:08.544Z,85.26
2022-12-27T08:59:41.968Z,85.50
2022-12-27T09:02:15.579Z,85.63
2022-12-27T09:04:50.809Z,85.72
2022-12-27T09:07:24.050Z,86.06
2022-12-27T09:09:59.055Z,86.57
2022-12-27T09:12:34.171Z,85.98
2022-12-27T09:15:09.680Z,86.84
2022-12-27T09:17:43.402Z,86.56
2022-12-27T09:20:16.696Z,86.15
2022-12-27T09:22:50.159Z,86.66
2022-12-27T09:25:25.098Z,87.39
2022-12-27T09:28:00.034Z,87.27
2022-12-27T09:30:33.569Z,87.33
2022-12-27T09:33:06.949Z,86.91
2022-12-27T09:35:40.321Z,86.63
2022-12-27T09:38:13.641Z,86.58
2022-12-27T09:40:55.583Z,85.80
2022-12-27T09:43:38.748Z,86.13
2022-12-27T09:46:18.343Z,86.83
2022-12-27T09:48:53.833Z,85.95
2022-12-27T09:51:33.636Z,85.84
2022-12-27T09:54:14.997Z,85.39
2022-12-27T09:57:18.850Z,84.82
2022-12-27T09:59:49.062Z,85.26
2022-12-27T10:02:25.283Z,84.68
2022-12-27T10:05:19.943Z,85.01
2022-12-27T10:08:12.020Z,85.05
2022-12-27T10:10:55.113Z,85.00
2022-12-27T10:13:43.104Z,85.26
2022-12-27T10:16:25.450Z,84.95
2022-12-27T10:19:25.904Z,84.74
2022-12-27T10:22:26.475Z,84.18
2022-12-27T10:25:15.083Z,84.06
2022-12-27T10:27:59.747Z,84.18
2022-12-27T10:30:41.530Z,84.27
2022-12-27T10:33:29.455Z,83.46
2022-12-27T10:36:16.237Z,83.00
2022-12-27T10:38:49.897Z,83.32
2022-12-27T10:41:45.168Z,81.87
2022-12-27T10:44:18.634Z,82.30
2022-12-27T10:46:56.350Z,83.04
2022-12-27T10:49:31.636Z,81.73
2022-12-27T10:52:10.161Z,81.72
2022-12-27T10:54:53.301Z,80.95
2022-12-27T10:57:28.761Z,81.17
2022-12-27T11:00:20.481Z,81.19
2022-12-27T11:02:57.382Z,81.02
2022-12-27T11:05:37.129Z,80.76
2022-12-27T11:08:20.968Z,81.29
2022-12-27T11:11:13.310Z,80.71
2022-12-27T11:13:48.318Z,80.11
2022-12-27T11:16:30.393Z,79.49
2022-12-27T11:19:05.768Z,79.33
2022-12-27T11:21:40.393Z,79.71
2022-12-27T11:24:17.412Z,78.96
2022-12-27T11:26:54.261Z,78.82
2022-12-27T11:29:30.802Z,79.19
2022-12-27T11:32:08.893Z,78.87
2022-12-27T11:34:49.099Z,78.62
2022-12-27T11:37:25.536Z,79.09
2022-12-27T11:40:22.425Z,79.10
2022-12-27T11:43:04.798Z,78.93
2022-12-27T11:45:41.707Z,78.27
2022-12-27T11:48:25.591Z,78.75
2022-12-27T11:51:23.378Z,77.66
2022-12-27T11:54:15.059Z,77.87
2022-12-27T11:56:54.130Z,77.73
2022-12-27T11:59:40.838Z,76.66
2022-12-27T12:02:37.307Z,76.43
2022-12-27T12:05:48.248Z,76.34
2022-12-27T12:08:49.813Z,74.61
2022-12-27T12:11:34.738Z,74.42
2022-12-27T12:14:36.500Z,71.82
2022-12-27T12:17:32.458Z,70.00
2022-12-27T12:20:33.263Z,69.83
2022-12-27T12:23:14.936Z,69.43
2022-12-27T12:26:15.890Z,68.92
2022-12-27T12:29:19.281Z,69.17
2022-12-27T12:32:31.554Z,69.40
2022-12-27T12:35:24.267Z,69.59
2022-12-27T12:38:12.290Z,70.04
2022-12-27T12:41:27.042Z,71.36
2022-12-27T12:44:41.483Z,69.68
2022-12-27T12:47:31.041Z,69.70
2022-12-27T12:50:24.435Z,68.68
2022-12-27T12:53:11.195Z,68.33
2022-12-27T12:55:55.293Z,68.11
2022-12-27T12:58:51.459Z,65.49
2022-12-27T13:01:43.766Z,64.84
2022-12-27T13:04:38.340Z,66.00
2022-12-27T13:07:41.493Z,67.36
2022-12-27T13:10:40.801Z,66.65
2022-12-27T13:13:24.278Z,65.19
2022-12-27T13:16:15.772Z,64.16
2022-12-27T13:19:01.528Z,62.98
2022-12-27T13:21:54.738Z,62.38
2022-12-27T13:24:43.699Z,61.95
2022-12-27T13:27:24.040Z,61.31
2022-12-27T13:30:07.231Z,62.21
2022-12-27T13:32:57.441Z,62.44
2022-12-27T13:35:42.667Z,61.70
2022-12-27T13:38:33.319Z,61.84
2022-12-27T13:41:30.150Z,61.64
2022-12-27T13:44:35.701Z,62.24
2022-12-27T13:47:35.487Z,62.10
2022-12-27T13:50:43.714Z,62.50
2022-12-27T13:53:37.664Z,62.85
2022-12-27T13:56:52.600Z,62.98
2022-12-27T13:59:43.360Z,65.18
2022-12-27T14:02:34.747Z,65.19
2022-12-27T14:05:48.192Z,66.09
2022-12-27T14:08:34.274Z,66.60
2022-12-27T14:11:21.046Z,67.12
2022-12-27T14:13:57.160Z,67.80
2022-12-27T14:16:43.160Z,68.49
2022-12-27T14:19:40.857Z,69.49
2022-12-27T14:22:49.691Z,70.52
2022-12-27T14:26:00.672Z,71.31
2022-12-27T14:29:01.261Z,72.40
2022-12-27T14:31:57.688Z,73.10
2022-12-27T14:35:01.300Z,73.47
2022-12-27T14:37:53.864Z,73.95
2022-12-27T14:40:51.495Z,75.02
2022-12-27T14:43:51.863Z,76.05
2022-12-27T14:47:04.793Z,76.65
2022-12-27T14:50:24.014Z,76.76
2022-12-27T14:53:32.657Z,77.01
2022-12-27T14:56:20.247Z,77.92
2022-12-27T14:59:14.802Z,78.21
2022-12-27T15:01:57.359Z,78.39
2022-12-27T15:05:07.819Z,78.48
2022-12-27T15:08:20.481Z,78.76
2022-12-27T15:11:04.903Z,79.24
2022-12-27T15:13:53.580Z,79.87
2022-12-27T15:16:39.470Z,80.13
2022-12-27T15:19:32.227Z,80.81
2022-12-27T15:22:16.847Z,80.82
2022-12-27T15:24:54.465Z,81.07
2022-12-27T15:27:34.305Z,80.62
2022-12-27T15:30:22.226Z,81.58
2022-12-27T15:33:05.033Z,81.58
2022-12-27T15:35:56.093Z,81.94
2022-12-27T15:38:53.475Z,81.37
2022-12-27T15:41:58.767Z,81.71
2022-12-27T15:44:51.889Z,81.93
2022-12-27T15:47:52.258Z,81.39
2022-12-27T15:50:45.528Z,81.94
2022-12-27T15:53:38.607Z,82.00
2022-12-27T15:56:24.926Z,81.52
2022-12-27T15:59:37.024Z,82.40
2022-12-27T16:02:32.890Z,82.30
2022-12-27T16:05:13.637Z,82.42
2022-12-27T16:07:50.154Z,81.71
2022-12-27T16:10:51.114Z,82.58
2022-12-27T16:13:43.665Z,82.03
2022-12-27T16:16:51.984Z,82.97
2022-12-27T16:20:07.400Z,83.30
2022-12-27T16:22:42.999Z,82.59
2022-12-27T16:25:30.621Z,82.32
2022-12-27T16:28:11.027Z,82.46
2022-12-27T16:30:48.223Z,81.34
2022-12-27T16:33:37.627Z,80.87
2022-12-27T16:36:20.032Z,80.18
2022-12-27T16:39:22.948Z,77.72
2022-12-27T16:42:02.984Z,77.61
2022-12-27T16:44:57.481Z,75.80
2022-12-27T16:47:57.092Z,74.90
2022-12-27T16:51:03.281Z,74.28
2022-12-27T16:53:52.841Z,74.66
2022-12-27T16:56:28.591Z,74.49
2022-12-27T16:59:01.973Z,74.43
2022-12-27T17:02:00.576Z,75.34
2022-12-27T17:05:00.444Z,74.69
2022-12-27T17:07:46.958Z,75.03
2022-12-27T17:10:58.268Z,74.98
2022-12-27T17:13:42.160Z,75.73
2022-12-27T17:16:23.870Z,75.87
2022-12-27T17:19:02.836Z,75.73
2022-12-27T17:21:38.677Z,75.10
2022-12-27T17:24:17.679Z,74.69
2022-12-27T17:27:06.392Z,74.09
2022-12-27T17:29:55.768Z,73.92
2022-12-27T17:32:45.828Z,73.97
2022-12-27T17:35:29.529Z,73.82
2022-12-27T17:38:16.114Z,74.26
2022-12-27T17:41:01.417Z,74.91
2022-12-27T17:44:05.000Z,75.25
2022-12-27T17:46:47.071Z,75.69
2022-12-27T17:49:27.728Z,75.92
2022-12-27T17:52:20.616Z,76.70
2022-12-27T17:55:25.586Z,77.00
2022-12-27T17:58:01.979Z,77.97
2022-12-27T18:00:37.964Z,78.09
2022-12-27T18:03:15.362Z,78.50
2022-12-27T18:05:49.536Z,79.17
2022-12-27T18:08:29.656Z,79.52
2022-12-27T18:11:05.369Z,80.62
2022-12-27T18:13:40.847Z,81.24
2022-12-27T18:16:17.880Z,81.64
2022-12-27T18:18:53.882Z,81.59
2022-12-27T18:21:30.095Z,82.29
2022-12-27T18:24:25.165Z,82.69
2022-12-27T18:27:04.622Z,81.82
2022-12-27T18:29:38.217Z,82.35
2022-12-27T18:32:14.403Z,82.36
2022-12-27T18:34:52.460Z,82.31
2022-12-27T18:37:27.184Z,83.15
2022-12-27T18:40:05.279Z,83.87
2022-12-27T18:42:44.780Z,84.72
2022-12-27T18:45:23.145Z,83.73
2022-12-27T18:48:00.287Z,84.71
2022-12-27T18:50:35.663Z,84.73
2022-12-27T18:53:24.587Z,85.60
2022-12-27T18:56:01.883Z,86.07
2022-12-27T18:58:36.086Z,86.27
2022-12-27T19:01:30.616Z,86.18
2022-12-27T19:04:21.016Z,85.72
2022-12-27T19:07:09.823Z,86.22
2022-12-27T19:09:55.081Z,86.79
2022-12-27T19:12:35.233Z,86.60
2022-12-27T19:15:17.299Z,86.80
2022-12-27T19:17:54.469Z,87.41
2022-12-27T19:20:30.477Z,87.87
2022-12-27T19:23:08.860Z,88.07
2022-12-27T19:25:43.843Z,87.51
2022-12-27T19:28:27.805Z,88.39
2022-12-27T19:31:18.540Z,88.62
2022-12-27T19:33:55.704Z,88.21
2022-12-27T19:36:32.590Z,88.97
2022-12-27T19:39:12.430Z,88.81
2022-12-27T19:41:45.845Z,88.76
2022-12-27T19:44:21.059Z,88.91
2022-12-27T19:46:54.381Z,89.17
2022-12-27T19:49:44.608Z,89.87
2022-12-27T19:52:20.858Z,89.13
2022-12-27T19:55:01.414Z,89.97
2022-12-27T19:57:35.132Z,90.47
2022-12-27T20:00:15.392Z,89.93
2022-12-27T20:02:48.850Z,91.11
2022-12-27T20:06:12.569Z,90.18
2022-12-27T20:08:25.558Z,90.39
2022-12-27T20:10:59.190Z,90.68
2022-12-27T20:13:33.485Z,91.79
2022-12-27T20:16:10.939Z,90.64
2022-12-27T20:18:44.991Z,90.25
2022-12-27T20:21:20.103Z,90.16
2022-12-27T20:23:53.540Z,90.27
2022-12-27T20:26:26.973Z,89.98
2022-12-27T20:29:01.212Z,90.25
2022-12-27T20:31:43.863Z,90.52
2022-12-27T20:34:18.023Z,91.01
2022-12-27T20:36:55.106Z,90.37
2022-12-27T20:39:28.748Z,91.65
2022-12-27T20:42:02.424Z,91.27
2022-12-27T20:44:35.704Z,90.68
2022-12-27T20:47:10.393Z,91.55
2022-12-27T20:49:43.852Z,91.22
2022-12-27T20:52:17.442Z,91.16
2022-12-27T20:54:51.084Z,92.61
2022-12-27T20:57:24.941Z,92.24
2022-12-27T20:59:58.158Z,92.60
2022-12-27T21:02:32.961Z,92.94
2022-12-27T21:05:07.359Z,91.78
2022-12-27T21:07:40.725Z,92.32
2022-12-27T21:10:14.454Z,92.75
2022-12-27T21:12:48.973Z,92.21
2022-12-27T21:15:24.255Z,91.99
2022-12-27T21:17:58.961Z,91.41
2022-12-27T21:20:32.216Z,90.52
2022-12-27T21:23:05.687Z,90.88
2022-12-27T21:25:39.773Z,90.67
2022-12-27T21:28:13.272Z,90.83
2022-12-27T21:30:56.412Z,90.94
2022-12-27T21:33:31.810Z,91.26
2022-12-27T21:36:07.621Z,90.67
2022-12-27T21:38:41.087Z,90.78
2022-12-27T21:41:16.321Z,91.37
2022-12-27T21:43:50.375Z,91.22
2022-12-27T21:46:25.635Z,91.35
2022-12-27T21:49:02.416Z,91.56
2022-12-27T21:51:36.766Z,91.41
2022-12-27T21:54:10.745Z,91.39
2022-12-27T21:56:44.116Z,91.93
2022-12-27T21:59:17.397Z,91.43
2022-12-27T22:01:52.534Z,91.44
2022-12-27T22:04:27.784Z,92.09
2022-12-27T22:07:01.421Z,92.18
2022-12-27T22:09:34.751Z,91.28
2022-12-27T22:12:08.861Z,91.30
2022-12-27T22:14:42.869Z,92.49
2022-12-27T22:17:17.735Z,92.25
2022-12-27T22:19:52.659Z,92.66
2022-12-27T22:22:26.078Z,92.57
2022-12-27T22:24:59.819Z,93.23
2022-12-27T22:27:33.276Z,92.71
2022-12-27T22:30:07.781Z,92.87
2022-12-27T22:32:41.095Z,93.25
2022-12-27T22:35:16.263Z,93.09
2022-12-27T22:37:49.863Z,94.02
2022-12-27T22:40:31.037Z,93.61
2022-12-27T22:43:15.639Z,94.43
2022-12-27T22:45:53.773Z,94.53
2022-12-27T22:48:27.348Z,94.18
2022-12-27T22:51:07.417Z,93.96
2022-12-27T22:53:41.379Z,93.69
2022-12-27T22:56:16.311Z,94.20
2022-12-27T22:58:50.116Z,94.42
2022-12-27T23:01:27.652Z,94.17
2022-12-27T23:04:02.489Z,93.68
2022-12-27T23:06:37.858Z,94.25
2022-12-27T23:09:11.704Z,94.02
2022-12-27T23:11:48.271Z,93.85
2022-12-27T23:14:21.952Z,93.05
2022-12-27T23:16:55.608Z,93.13
2022-12-27T23:19:28.890Z,93.35
2022-12-27T23:22:03.566Z,93.49
2022-12-27T23:24:37.100Z,92.83
2022-12-27T23:27:10.844Z,93.68
2022-12-27T23:29:44.383Z,93.54
2022-12-27T23:32:17.611Z,93.71
2022-12-27T23:34:52.570Z,92.85
2022-12-27T23:37:27.179Z,93.45
2022-12-27T23:40:00.513Z,93.32
2022-12-27T23:42:34.157Z,93.17
2022-12-27T23:45:08.641Z,93.24
2022-12-27T23:47:41.837Z,92.83
2022-12-27T23:50:20.736Z,92.92
2022-12-27T23:52:55.767Z,93.22
2022-12-27T23:55:29.477Z,93.35
2022-12-27T23:58:03.103Z,93.61
